Hovedside
METAR-TAF:

METAR-TAF

Lufthavner :

Alta lufthavn

Alta, Norge

breddegrad: 69-59N, lengdegrad: 023-22E, høyde over havet: 0 m

Gjeldene værobservasjon

Denne rapporten ble laget for 1 time og 10 minutter siden, klokken 03:50 UTC
Vind 1 kt fra skiftende retning
Temperatur 2°C
Luftfuktighet 87%
Trykk 1026 hPa
Sikt 10 km eller mer
ingen skyer under 1500 m og ingen bygeskyer

METAR: ENAT 250350Z VRB01KT CAVOK 02/00 Q1026 RMK WIND 700FT 16009KT

Tid: 07:00 (05:00 UTC)

Varsel

Denne rapporten ble laget for 3 timer og 0 minutter siden, klokken 02:00 UTC
Varsel gyldig fra 25. klokken 03 UTC til 25. klokken 12 UTC
Vind 5 kt fra skiftende retning
Sikt 10 km eller mer
Spredte skyer i en høyde av 5000 ft

TAF: ENAT 250200Z 2503/2512 VRB05KT 9999 SCT050

Værobservasjoner og værvarsel for over 4000 flyplasser (METAR- og TAF-rapporter).

Tilgjengelige stasjoner er representert av de røde og gule prikkene på kartet.

Hold musepekeren over prikken for å se navnet på stasjonen.

Klikk så for å se værobservasjoner og -varsler.

For å forandre kartet kan du klikke på den grønne knappen med svart kryss for å zoome inn, på den grønne knappen med strek for å zoome ut, eller på de grønne pilene for å se tilstøtende kart.


METAR-TAF: